sensor_id;sensor_type;location;lat;lon;timestamp;pressure;altitude;pressure_sealevel;temperature;humidity
39341;BME280;25059;52.132;21.062;2023-05-01T05:34:39;100963.19;;;16.12;40.06
39341;BME280;25059;52.132;21.062;2023-05-01T05:37:26;100958.59;;;15.81;40.20
39341;BME280;25059;52.132;21.062;2023-05-01T05:40:11;100972.47;;;16.03;39.58
39341;BME280;25059;52.132;21.062;2023-05-01T05:42:56;100966.94;;;16.08;39.34
39341;BME280;25059;52.132;21.062;2023-05-01T05:45:40;100968.09;;;16.20;39.19
39341;BME280;25059;52.132;21.062;2023-05-01T05:48:26;100964.06;;;16.45;38.64
39341;BME280;25059;52.132;21.062;2023-05-01T05:51:10;100965.53;;;17.00;38.39
39341;BME280;25059;52.132;21.062;2023-05-01T05:53:55;100964.84;;;17.12;38.15
39341;BME280;25059;52.132;21.062;2023-05-01T05:56:40;100970.53;;;17.52;37.61
39341;BME280;25059;52.132;21.062;2023-05-01T05:59:24;100967.88;;;17.67;37.74
39341;BME280;25059;52.132;21.062;2023-05-01T06:02:09;100967.13;;;17.50;37.73
39341;BME280;25059;52.132;21.062;2023-05-01T06:04:54;100968.91;;;17.49;38.24
39341;BME280;25059;52.132;21.062;2023-05-01T06:07:39;100959.06;;;17.51;37.47
39341;BME280;25059;52.132;21.062;2023-05-01T06:10:24;100971.63;;;17.63;37.06
39341;BME280;25059;52.132;21.062;2023-05-01T06:13:09;100965.84;;;17.87;36.87
39341;BME280;25059;52.132;21.062;2023-05-01T06:15:54;100959.50;;;17.89;36.00
39341;BME280;25059;52.132;21.062;2023-05-01T06:18:38;100971.22;;;17.55;35.10
39341;BME280;25059;52.132;21.062;2023-05-01T06:21:23;100976.16;;;17.00;34.89
39341;BME280;25059;52.132;21.062;2023-05-01T06:24:07;100975.72;;;16.26;34.15
39341;BME280;25059;52.132;21.062;2023-05-01T06:26:52;100972.22;;;16.91;33.94
39341;BME280;25059;52.132;21.062;2023-05-01T06:29:37;100971.09;;;17.27;33.87
39341;BME280;25059;52.132;21.062;2023-05-01T06:32:22;100972.47;;;17.80;32.97
39341;BME280;25059;52.132;21.062;2023-05-01T06:35:06;100981.47;;;18.07;32.54
39341;BME280;25059;52.132;21.062;2023-05-01T06:37:51;100972.56;;;17.78;33.36
39341;BME280;25059;52.132;21.062;2023-05-01T06:40:36;100970.78;;;17.79;33.54
39341;BME280;25059;52.132;21.062;2023-05-01T06:43:20;100958.44;;;17.92;32.75
39341;BME280;25059;52.132;21.062;2023-05-01T06:46:05;100971.97;;;17.73;33.40
39341;BME280;25059;52.132;21.062;2023-05-01T06:48:49;100966.59;;;18.47;32.50
39341;BME280;25059;52.132;21.062;2023-05-01T06:51:33;100970.69;;;18.95;31.58
39341;BME280;25059;52.132;21.062;2023-05-01T06:54:18;100962.06;;;18.63;31.43
39341;BME280;25059;52.132;21.062;2023-05-01T06:57:02;100964.63;;;18.65;31.74
39341;BME280;25059;52.132;21.062;2023-05-01T06:59:47;100965.47;;;18.80;31.55
39341;BME280;25059;52.132;21.062;2023-05-01T07:02:32;100953.47;;;18.87;30.12
39341;BME280;25059;52.132;21.062;2023-05-01T07:05:16;100959.09;;;19.23;30.39
39341;BME280;25059;52.132;21.062;2023-05-01T07:08:01;100956.84;;;19.17;30.31
39341;BME280;25059;52.132;21.062;2023-05-01T07:10:46;100938.97;;;19.32;30.26
39341;BME280;25059;52.132;21.062;2023-05-01T07:13:30;100943.28;;;19.47;30.85
39341;BME280;25059;52.132;21.062;2023-05-01T07:16:15;100939.22;;;19.42;30.58
39341;BME280;25059;52.132;21.062;2023-05-01T07:19:01;100936.88;;;19.64;30.04
39341;BME280;25059;52.132;21.062;2023-05-01T07:21:45;100956.53;;;19.22;30.45
39341;BME280;25059;52.132;21.062;2023-05-01T07:24:30;100945.19;;;18.91;30.76
39341;BME280;25059;52.132;21.062;2023-05-01T07:27:17;100957.66;;;19.59;29.58
39341;BME280;25059;52.132;21.062;2023-05-01T07:30:02;100950.91;;;19.53;29.87
39341;BME280;25059;52.132;21.062;2023-05-01T07:32:48;100958.72;;;18.88;31.13
39341;BME280;25059;52.132;21.062;2023-05-01T07:35:32;100948.72;;;19.19;30.65
39341;BME280;25059;52.132;21.062;2023-05-01T07:38:17;100948.88;;;19.30;30.19
39341;BME280;25059;52.132;21.062;2023-05-01T07:41:01;100950.50;;;19.32;30.16
39341;BME280;25059;52.132;21.062;2023-05-01T07:43:46;100954.94;;;19.86;29.98
39341;BME280;25059;52.132;21.062;2023-05-01T07:46:31;100949.84;;;19.29;30.89
39341;BME280;25059;52.132;21.062;2023-05-01T07:49:16;100945.78;;;20.15;30.02
39341;BME280;25059;52.132;21.062;2023-05-01T07:52:01;100938.97;;;20.49;29.76
39341;BME280;25059;52.132;21.062;2023-05-01T07:55:05;100937.34;;;20.09;30.46
39341;BME280;25059;52.132;21.062;2023-05-01T07:57:50;100932.66;;;20.38;29.56
39341;BME280;25059;52.132;21.062;2023-05-01T08:00:35;100943.75;;;20.31;29.32
39341;BME280;25059;52.132;21.062;2023-05-01T08:03:19;100943.25;;;19.61;30.08
39341;BME280;25059;52.132;21.062;2023-05-01T08:06:05;100942.56;;;19.85;30.15
39341;BME280;25059;52.132;21.062;2023-05-01T08:08:49;100934.97;;;20.80;29.67
39341;BME280;25059;52.132;21.062;2023-05-01T08:11:34;100935.97;;;20.67;28.96
39341;BME280;25059;52.132;21.062;2023-05-01T08:14:18;100938.66;;;19.36;29.91
39341;BME280;25059;52.132;21.062;2023-05-01T08:17:04;100932.56;;;20.26;29.49
39341;BME280;25059;52.132;21.062;2023-05-01T08:19:48;100934.69;;;20.34;29.91
39341;BME280;25059;52.132;21.062;2023-05-01T08:22:33;100934.47;;;19.99;30.01
39341;BME280;25059;52.132;21.062;2023-05-01T08:25:18;100933.59;;;21.11;28.82
39341;BME280;25059;52.132;21.062;2023-05-01T08:28:03;100936.25;;;21.24;28.69
39341;BME280;25059;52.132;21.062;2023-05-01T08:30:48;100938.88;;;21.00;29.12
39341;BME280;25059;52.132;21.062;2023-05-01T08:33:33;100931.34;;;20.69;28.93
39341;BME280;25059;52.132;21.062;2023-05-01T08:36:17;100942.53;;;19.72;29.24
39341;BME280;25059;52.132;21.062;2023-05-01T08:39:02;100937.13;;;20.37;28.78
39341;BME280;25059;52.132;21.062;2023-05-01T08:41:48;100933.91;;;20.70;28.69
39341;BME280;25059;52.132;21.062;2023-05-01T08:44:37;100931.28;;;20.19;28.84
39341;BME280;25059;52.132;21.062;2023-05-01T08:47:23;100923.34;;;20.69;28.55
39341;BME280;25059;52.132;21.062;2023-05-01T08:50:09;100935.13;;;20.15;29.23
39341;BME280;25059;52.132;21.062;2023-05-01T08:52:56;100937.03;;;20.13;29.35
39341;BME280;25059;52.132;21.062;2023-05-01T08:55:44;100927.41;;;20.36;28.84
39341;BME280;25059;52.132;21.062;2023-05-01T08:58:32;100921.16;;;21.47;28.47
39341;BME280;25059;52.132;21.062;2023-05-01T09:01:19;100930.31;;;21.32;28.15
39341;BME280;25059;52.132;21.062;2023-05-01T09:04:06;100930.31;;;21.32;29.48
39341;BME280;25059;52.132;21.062;2023-05-01T09:06:53;100920.56;;;21.54;28.55
39341;BME280;25059;52.132;21.062;2023-05-01T09:09:38;100923.25;;;22.01;27.75
39341;BME280;25059;52.132;21.062;2023-05-01T09:12:25;100937.13;;;21.59;27.45
39341;BME280;25059;52.132;21.062;2023-05-01T09:15:10;100920.19;;;20.87;27.69
39341;BME280;25059;52.132;21.062;2023-05-01T09:17:59;100926.28;;;20.89;27.93
39341;BME280;25059;52.132;21.062;2023-05-01T09:20:44;100906.94;;;21.22;27.43
39341;BME280;25059;52.132;21.062;2023-05-01T09:23:28;100917.28;;;20.90;28.63
39341;BME280;25059;52.132;21.062;2023-05-01T09:26:12;100912.06;;;21.13;27.47
39341;BME280;25059;52.132;21.062;2023-05-01T09:28:57;100910.59;;;21.09;26.97
39341;BME280;25059;52.132;21.062;2023-05-01T09:31:42;100901.13;;;20.92;27.61
39341;BME280;25059;52.132;21.062;2023-05-01T09:34:27;100902.22;;;20.53;27.14
39341;BME280;25059;52.132;21.062;2023-05-01T09:37:24;100898.13;;;21.79;27.08
39341;BME280;25059;52.132;21.062;2023-05-01T09:40:13;100908.81;;;22.14;26.25
39341;BME280;25059;52.132;21.062;2023-05-01T09:42:57;100898.41;;;21.99;26.49
39341;BME280;25059;52.132;21.062;2023-05-01T09:45:42;100886.00;;;22.76;25.52
39341;BME280;25059;52.132;21.062;2023-05-01T09:48:26;100878.50;;;22.25;26.42
39341;BME280;25059;52.132;21.062;2023-05-01T09:54:16;100876.09;;;23.10;25.53
39341;BME280;25059;52.132;21.062;2023-05-01T09:57:01;100878.88;;;23.40;25.36
39341;BME280;25059;52.132;21.062;2023-05-01T10:00:01;100871.88;;;23.28;25.33
39341;BME280;25059;52.132;21.062;2023-05-01T10:02:51;100872.00;;;23.27;25.84
39341;BME280;25059;52.132;21.062;2023-05-01T10:05:43;100869.22;;;22.85;24.72
39341;BME280;25059;52.132;21.062;2023-05-01T10:08:47;100874.84;;;23.14;24.77
39341;BME280;25059;52.132;21.062;2023-05-01T10:11:53;100855.31;;;24.06;24.38
39341;BME280;25059;52.132;21.062;2023-05-01T10:18:13;100858.34;;;27.96;20.29
39341;BME280;25059;52.132;21.062;2023-05-01T10:20:58;100842.34;;;30.65;19.17
39341;BME280;25059;52.132;21.062;2023-05-01T10:23:43;100844.16;;;32.46;17.30
39341;BME280;25059;52.132;21.062;2023-05-01T10:26:28;100844.84;;;32.84;16.26
39341;BME280;25059;52.132;21.062;2023-05-01T10:29:13;100842.66;;;31.99;15.53
39341;BME280;25059;52.132;21.062;2023-05-01T10:31:59;100840.06;;;33.78;15.09
39341;BME280;25059;52.132;21.062;2023-05-01T10:34:48;100843.84;;;31.44;15.49
39341;BME280;25059;52.132;21.062;2023-05-01T10:40:45;100844.09;;;32.90;15.15
39341;BME280;25059;52.132;21.062;2023-05-01T10:43:31;100831.06;;;35.14;13.89
39341;BME280;25059;52.132;21.062;2023-05-01T10:49:02;100836.75;;;38.92;11.92
39341;BME280;25059;52.132;21.062;2023-05-01T10:52:02;100820.81;;;40.29;10.76
39341;BME280;25059;52.132;21.062;2023-05-01T10:54:47;100823.31;;;37.99;11.52
39341;BME280;25059;52.132;21.062;2023-05-01T10:57:47;100830.81;;;37.10;13.14
39341;BME280;25059;52.132;21.062;2023-05-01T11:00:32;100837.53;;;37.71;12.55
39341;BME280;25059;52.132;21.062;2023-05-01T11:06:05;100809.94;;;40.91;9.90
39341;BME280;25059;52.132;21.062;2023-05-01T11:08:50;100830.34;;;39.86;9.66
39341;BME280;25059;52.132;21.062;2023-05-01T11:14:21;100808.66;;;40.01;10.19
39341;BME280;25059;52.132;21.062;2023-05-01T11:17:06;100805.53;;;41.57;9.67
39341;BME280;25059;52.132;21.062;2023-05-01T11:19:50;100799.91;;;43.32;8.85
39341;BME280;25059;52.132;21.062;2023-05-01T11:22:37;100806.41;;;44.47;8.43
39341;BME280;25059;52.132;21.062;2023-05-01T11:25:25;100799.06;;;43.68;8.87
39341;BME280;25059;52.132;21.062;2023-05-01T11:28:11;100796.09;;;42.08;9.89
39341;BME280;25059;52.132;21.062;2023-05-01T11:31:00;100794.91;;;40.42;10.02
39341;BME280;25059;52.132;21.062;2023-05-01T11:33:46;100801.56;;;39.47;10.21
39341;BME280;25059;52.132;21.062;2023-05-01T11:36:46;100787.25;;;38.62;10.33
39341;BME280;25059;52.132;21.062;2023-05-01T11:39:32;100786.22;;;39.04;9.86
39341;BME280;25059;52.132;21.062;2023-05-01T11:42:20;100775.50;;;41.10;9.37
39341;BME280;25059;52.132;21.062;2023-05-01T11:45:07;100776.19;;;42.33;8.90
39341;BME280;25059;52.132;21.062;2023-05-01T11:47:54;100769.75;;;43.03;8.72
39341;BME280;25059;52.132;21.062;2023-05-01T11:50:38;100781.81;;;44.86;8.96
39341;BME280;25059;52.132;21.062;2023-05-01T11:53:23;100774.78;;;42.52;8.70
39341;BME280;25059;52.132;21.062;2023-05-01T11:56:24;100770.72;;;39.92;9.16
39341;BME280;25059;52.132;21.062;2023-05-01T12:01:55;100766.84;;;42.12;8.44
39341;BME280;25059;52.132;21.062;2023-05-01T12:04:40;100753.66;;;40.92;8.71
39341;BME280;25059;52.132;21.062;2023-05-01T12:07:26;100758.31;;;41.75;8.93
39341;BME280;25059;52.132;21.062;2023-05-01T12:10:10;100747.88;;;42.75;8.37
39341;BME280;25059;52.132;21.062;2023-05-01T12:12:55;100755.03;;;41.78;8.53
39341;BME280;25059;52.132;21.062;2023-05-01T12:15:43;100755.53;;;40.18;8.78
39341;BME280;25059;52.132;21.062;2023-05-01T12:18:28;100765.75;;;37.67;9.91
39341;BME280;25059;52.132;21.062;2023-05-01T12:21:14;100748.78;;;38.43;9.88
39341;BME280;25059;52.132;21.062;2023-05-01T12:24:17;100737.66;;;39.22;9.27
39341;BME280;25059;52.132;21.062;2023-05-01T12:27:02;100730.53;;;42.04;8.58
39341;BME280;25059;52.132;21.062;2023-05-01T12:29:49;100729.88;;;42.18;8.30
39341;BME280;25059;52.132;21.062;2023-05-01T12:32:33;100731.13;;;42.33;8.31
39341;BME280;25059;52.132;21.062;2023-05-01T12:35:19;100722.31;;;41.15;8.64
39341;BME280;25059;52.132;21.062;2023-05-01T12:38:20;100722.75;;;38.76;9.47
39341;BME280;25059;52.132;21.062;2023-05-01T12:41:05;100724.63;;;39.40;8.92
39341;BME280;25059;52.132;21.062;2023-05-01T12:43:52;100722.47;;;39.07;9.24
39341;BME280;25059;52.132;21.062;2023-05-01T12:46:37;100721.09;;;40.60;8.65
39341;BME280;25059;52.132;21.062;2023-05-01T12:49:22;100698.00;;;42.38;8.64
39341;BME280;25059;52.132;21.062;2023-05-01T12:52:07;100703.13;;;43.57;8.62
39341;BME280;25059;52.132;21.062;2023-05-01T12:55:01;100704.81;;;44.36;8.00
39341;BME280;25059;52.132;21.062;2023-05-01T12:57:51;100702.97;;;43.79;7.77
39341;BME280;25059;52.132;21.062;2023-05-01T13:00:42;100694.81;;;42.24;8.27
39341;BME280;25059;52.132;21.062;2023-05-01T13:03:29;100690.91;;;45.53;7.43
39341;BME280;25059;52.132;21.062;2023-05-01T13:06:13;100686.84;;;44.49;7.23
39341;BME280;25059;52.132;21.062;2023-05-01T13:09:07;100684.91;;;43.24;8.18
39341;BME280;25059;52.132;21.062;2023-05-01T13:12:01;100675.34;;;40.93;9.60
39341;BME280;25059;52.132;21.062;2023-05-01T13:14:49;100674.31;;;45.27;8.40
39341;BME280;25059;52.132;21.062;2023-05-01T13:17:33;100670.97;;;43.56;8.32
39341;BME280;25059;52.132;21.062;2023-05-01T13:20:24;100680.03;;;41.48;9.43
39341;BME280;25059;52.132;21.062;2023-05-01T13:23:11;100671.66;;;42.89;8.56
39341;BME280;25059;52.132;21.062;2023-05-01T13:25:56;100669.75;;;46.60;7.96
39341;BME280;25059;52.132;21.062;2023-05-01T13:28:43;100664.03;;;45.13;8.49
39341;BME280;25059;52.132;21.062;2023-05-01T13:31:29;100661.78;;;44.13;8.36
39341;BME280;25059;52.132;21.062;2023-05-01T13:34:16;100655.38;;;46.82;7.62
39341;BME280;25059;52.132;21.062;2023-05-01T13:37:09;100667.06;;;49.89;7.29
39341;BME280;25059;52.132;21.062;2023-05-01T13:39:56;100663.38;;;47.18;6.86
39341;BME280;25059;52.132;21.062;2023-05-01T13:42:41;100661.03;;;47.97;7.39
39341;BME280;25059;52.132;21.062;2023-05-01T13:45:26;100667.09;;;48.88;7.20
39341;BME280;25059;52.132;21.062;2023-05-01T13:48:10;100669.44;;;48.48;6.73
39341;BME280;25059;52.132;21.062;2023-05-01T13:50:56;100667.19;;;48.50;7.33
39341;BME280;25059;52.132;21.062;2023-05-01T13:53:41;100700.28;;;46.37;6.81
39341;BME280;25059;52.132;21.062;2023-05-01T13:56:26;100728.16;;;46.65;7.19
39341;BME280;25059;52.132;21.062;2023-05-01T13:59:12;100735.97;;;44.63;7.81
39341;BME280;25059;52.132;21.062;2023-05-01T14:01:56;100713.50;;;46.06;7.23
39341;BME280;25059;52.132;21.062;2023-05-01T14:04:40;100704.06;;;46.01;7.15
39341;BME280;25059;52.132;21.062;2023-05-01T14:07:25;100692.03;;;48.84;6.74
39341;BME280;25059;52.132;21.062;2023-05-01T14:10:13;100708.66;;;51.78;5.46
39341;BME280;25059;52.132;21.062;2023-05-01T14:12:58;100697.84;;;52.28;5.20
39341;BME280;25059;52.132;21.062;2023-05-01T14:15:44;100680.44;;;49.78;5.98
39341;BME280;25059;52.132;21.062;2023-05-01T14:18:28;100666.13;;;50.52;5.96
39341;BME280;25059;52.132;21.062;2023-05-01T14:21:14;100642.56;;;47.34;6.14
39341;BME280;25059;52.132;21.062;2023-05-01T14:24:01;100637.50;;;47.84;6.64
39341;BME280;25059;52.132;21.062;2023-05-01T14:26:46;100623.97;;;47.29;7.49
39341;BME280;25059;52.132;21.062;2023-05-01T14:29:32;100624.03;;;46.32;7.20
39341;BME280;25059;52.132;21.062;2023-05-01T14:32:17;100624.84;;;45.34;7.89
39341;BME280;25059;52.132;21.062;2023-05-01T14:35:07;100619.56;;;46.37;7.34
39341;BME280;25059;52.132;21.062;2023-05-01T14:37:53;100601.84;;;47.38;7.16
39341;BME280;25059;52.132;21.062;2023-05-01T14:40:40;100594.66;;;47.75;7.17
39341;BME280;25059;52.132;21.062;2023-05-01T14:43:26;100595.88;;;48.25;7.15
39341;BME280;25059;52.132;21.062;2023-05-01T14:46:11;100597.28;;;46.02;7.65
39341;BME280;25059;52.132;21.062;2023-05-01T14:48:58;100587.91;;;45.29;8.25
39341;BME280;25059;52.132;21.062;2023-05-01T14:51:42;100588.03;;;46.46;7.86
39341;BME280;25059;52.132;21.062;2023-05-01T14:54:26;100577.75;;;46.76;7.77
39341;BME280;25059;52.132;21.062;2023-05-01T14:57:11;100586.06;;;46.81;8.10
39341;BME280;25059;52.132;21.062;2023-05-01T14:59:56;100579.03;;;45.27;8.83
39341;BME280;25059;52.132;21.062;2023-05-01T15:02:41;100568.06;;;44.05;8.69
39341;BME280;25059;52.132;21.062;2023-05-01T15:05:26;100582.44;;;44.98;8.09
39341;BME280;25059;52.132;21.062;2023-05-01T15:08:12;100578.34;;;44.35;8.36
39341;BME280;25059;52.132;21.062;2023-05-01T15:10:57;100573.88;;;44.74;8.61
39341;BME280;25059;52.132;21.062;2023-05-01T15:13:42;100575.53;;;44.81;7.93
39341;BME280;25059;52.132;21.062;2023-05-01T15:16:27;100573.16;;;42.93;8.43
39341;BME280;25059;52.132;21.062;2023-05-01T15:19:12;100562.28;;;40.98;9.45
39341;BME280;25059;52.132;21.062;2023-05-01T15:21:57;100570.09;;;41.45;9.40
39341;BME280;25059;52.132;21.062;2023-05-01T15:24:42;100567.16;;;40.91;9.02
39341;BME280;25059;52.132;21.062;2023-05-01T15:27:26;100553.72;;;39.42;10.40
39341;BME280;25059;52.132;21.062;2023-05-01T15:30:13;100548.16;;;41.60;10.03
